Time;durP1;ratioP1;P1;durP2;ratioP2;P2;SDS_P1;SDS_P2;PMS_P1;PMS_P2;Temp;Humidity;BMP_temperature;BMP_pressure;BME280_temperature;BME280_humidity;BME280_pressure;Samples;Min_cycle;Max_cycle;Signal;HPM_P1;HPM_P2
2021/12/15 00:01:40;;;;;;;19.60;9.83;;;;;;;;;;5000119;28;20291;-81
2021/12/15 00:04:07;;;;;;;20.87;9.63;;;;;;;;;;4995753;28;20207;-80
2021/12/15 00:06:35;;;;;;;19.30;9.40;;;;;;;;;;4980691;28;20765;-81
2021/12/15 00:09:04;;;;;;;26.23;10.43;;;;;;;;;;5000973;28;20341;-78
2021/12/15 00:11:37;;;;;;;20.47;10.33;;;;;;;;;;4989870;28;20279;-80
2021/12/15 00:14:06;;;;;;;18.50;8.90;;;;;;;;;;4992768;28;20306;-79
2021/12/15 00:16:34;;;;;;;17.97;8.03;;;;;;;;;;4997573;28;20223;-78
2021/12/15 00:19:01;;;;;;;22.10;9.90;;;;;;;;;;4995429;28;20502;-81
2021/12/15 00:21:28;;;;;;;19.70;7.17;;;;;;;;;;4992526;28;20303;-79
2021/12/15 00:23:57;;;;;;;16.00;5.97;;;;;;;;;;4984596;28;20231;-80
2021/12/15 00:26:24;;;;;;;13.90;6.50;;;;;;;;;;4990984;28;20266;-79
2021/12/15 00:28:51;;;;;;;30.77;6.27;;;;;;;;;;4987839;28;20230;-80
2021/12/15 00:31:19;;;;;;;37.50;5.73;;;;;;;;;;4997713;28;20204;-81
2021/12/15 00:33:47;;;;;;;52.77;6.07;;;;;;;;;;5002229;28;20305;-79
2021/12/15 00:36:16;;;;;;;25.33;6.13;;;;;;;;;;4976806;28;20591;-81
2021/12/15 00:38:43;;;;;;;32.37;6.23;;;;;;;;;;4988685;28;20310;-81
2021/12/15 00:41:10;;;;;;;45.97;6.37;;;;;;;;;;5002645;28;20208;-79
2021/12/15 00:43:38;;;;;;;12.57;6.20;;;;;;;;;;4987336;28;20250;-78
2021/12/15 00:46:06;;;;;;;33.07;6.03;;;;;;;;;;4996732;28;20235;-81
2021/12/15 00:48:33;;;;;;;13.37;5.30;;;;;;;;;;4992614;28;20665;-80
2021/12/15 00:51:01;;;;;;;18.30;6.40;;;;;;;;;;5005712;28;20667;-82
2021/12/15 00:53:29;;;;;;;44.77;6.10;;;;;;;;;;4997522;28;20239;-79
2021/12/15 00:55:56;;;;;;;11.43;5.57;;;;;;;;;;5003604;28;20334;-80
2021/12/15 00:58:24;;;;;;;8.07;4.40;;;;;;;;;;4996868;28;20235;-80
2021/12/15 01:00:56;;;;;;;12.07;5.60;;;;;;;;;;5003431;28;20642;-79
2021/12/15 01:03:24;;;;;;;10.47;5.60;;;;;;;;;;4998885;28;20208;-79
2021/12/15 01:05:53;;;;;;;11.47;5.83;;;;;;;;;;4983560;28;20212;-78
2021/12/15 01:08:27;;;;;;;16.80;5.70;;;;;;;;;;4988181;28;20227;-79
2021/12/15 01:11:10;;;;;;;11.97;5.70;;;;;;;;;;4977605;28;20208;-81
2021/12/15 01:22:26;;;;;;;16.23;7.43;;;;;;;;;;4964444;28;20195;-80
2021/12/15 01:25:08;;;;;;;20.47;7.60;;;;;;;;;;5008626;28;20472;-81
2021/12/15 01:27:36;;;;;;;17.33;7.70;;;;;;;;;;5005030;28;20754;-81
2021/12/15 01:30:04;;;;;;;14.47;7.00;;;;;;;;;;4998521;28;20254;-80
2021/12/15 01:32:32;;;;;;;16.67;6.30;;;;;;;;;;4980899;28;20654;-81
2021/12/15 01:34:59;;;;;;;12.80;6.83;;;;;;;;;;4996418;28;20739;-80
2021/12/15 01:37:26;;;;;;;12.97;6.30;;;;;;;;;;4992830;28;20227;-79
2021/12/15 01:39:55;;;;;;;13.00;6.57;;;;;;;;;;5003922;28;20551;-80
2021/12/15 01:42:30;;;;;;;12.03;5.90;;;;;;;;;;4977494;28;20208;-81
2021/12/15 01:47:44;;;;;;;19.27;5.83;;;;;;;;;;4997649;28;20306;-80
2021/12/15 01:50:12;;;;;;;11.87;6.30;;;;;;;;;;4998899;28;20234;-81
2021/12/15 01:52:42;;;;;;;36.07;6.10;;;;;;;;;;5002281;28;20199;-80
2021/12/15 01:55:14;;;;;;;17.77;6.43;;;;;;;;;;5004665;28;20204;-80
2021/12/15 01:57:42;;;;;;;11.30;6.00;;;;;;;;;;4991369;28;20327;-80
2021/12/15 02:00:13;;;;;;;13.40;5.37;;;;;;;;;;4976579;28;20207;-81
2021/12/15 02:02:41;;;;;;;20.57;6.90;;;;;;;;;;5004626;28;20235;-80
2021/12/15 02:05:09;;;;;;;30.90;6.87;;;;;;;;;;5000538;28;20548;-80
2021/12/15 02:07:37;;;;;;;43.67;7.17;;;;;;;;;;4997928;28;20348;-81
2021/12/15 02:10:06;;;;;;;37.67;6.63;;;;;;;;;;4981802;28;20676;-81
2021/12/15 02:12:54;;;;;;;19.23;6.57;;;;;;;;;;5005767;28;20214;-80
2021/12/15 02:15:23;;;;;;;15.97;6.83;;;;;;;;;;4980666;28;20649;-80
2021/12/15 02:17:51;;;;;;;26.30;6.77;;;;;;;;;;5003538;28;20286;-81
2021/12/15 02:20:19;;;;;;;15.10;6.67;;;;;;;;;;4998341;28;20933;-81
2021/12/15 02:22:47;;;;;;;13.77;7.00;;;;;;;;;;5008645;28;20287;-82
2021/12/15 02:25:15;;;;;;;13.63;6.00;;;;;;;;;;5008534;28;20262;-82
2021/12/15 02:27:43;;;;;;;9.43;6.13;;;;;;;;;;5003734;28;20230;-82
2021/12/15 02:30:37;;;;;;;11.50;5.97;;;;;;;;;;4992472;28;20295;-79
2021/12/15 02:33:10;;;;;;;12.13;6.13;;;;;;;;;;4993505;28;20298;-80
2021/12/15 02:38:32;;;;;;;10.70;6.40;;;;;;;;;;5004104;28;20235;-81
2021/12/15 02:41:10;;;;;;;11.90;6.23;;;;;;;;;;4996665;28;20219;-78
2021/12/15 02:43:38;;;;;;;8.77;5.87;;;;;;;;;;4993598;28;20266;-80
2021/12/15 02:46:07;;;;;;;11.23;6.27;;;;;;;;;;5000523;28;20598;-81
2021/12/15 02:48:34;;;;;;;13.03;6.17;;;;;;;;;;4987309;28;20318;-80
2021/12/15 02:51:01;;;;;;;12.10;6.13;;;;;;;;;;5000612;28;20231;-80
2021/12/15 02:53:29;;;;;;;16.70;6.77;;;;;;;;;;4993965;28;20283;-80
2021/12/15 02:55:56;;;;;;;15.93;6.93;;;;;;;;;;4989713;28;20801;-82
2021/12/15 02:58:31;;;;;;;20.37;8.20;;;;;;;;;;4998166;28;20310;-80
2021/12/15 03:01:04;;;;;;;15.27;7.37;;;;;;;;;;5007711;28;20638;-81
2021/12/15 03:06:20;;;;;;;8.87;5.67;;;;;;;;;;5004312;28;20400;-80
2021/12/15 03:08:55;;;;;;;11.07;6.83;;;;;;;;;;5007642;28;20246;-83
2021/12/15 03:16:58;;;;;;;10.47;6.47;;;;;;;;;;5004798;28;20648;-81
2021/12/15 03:19:25;;;;;;;10.53;7.27;;;;;;;;;;4990979;28;20306;-82
2021/12/15 03:21:53;;;;;;;10.23;7.03;;;;;;;;;;4990792;28;20310;-80
2021/12/15 03:24:23;;;;;;;16.57;7.63;;;;;;;;;;4996099;28;20678;-79
2021/12/15 03:27:00;;;;;;;9.20;6.60;;;;;;;;;;5002117;28;20262;-79
2021/12/15 03:35:06;;;;;;;14.30;7.47;;;;;;;;;;5001355;28;20291;-82
2021/12/15 03:37:36;;;;;;;12.10;6.70;;;;;;;;;;4992447;28;20226;-79
2021/12/15 03:40:08;;;;;;;14.27;7.33;;;;;;;;;;4995634;28;20223;-81
2021/12/15 03:42:44;;;;;;;9.73;5.77;;;;;;;;;;5000792;28;20227;-80
2021/12/15 03:45:13;;;;;;;14.97;7.10;;;;;;;;;;5000137;28;20244;-81
2021/12/15 03:47:43;;;;;;;11.93;6.80;;;;;;;;;;4989936;28;20671;-80
2021/12/15 03:50:12;;;;;;;12.33;5.70;;;;;;;;;;4980211;28;20670;-80
2021/12/15 03:52:40;;;;;;;12.60;6.03;;;;;;;;;;4994877;28;20297;-80
2021/12/15 03:55:08;;;;;;;18.53;6.03;;;;;;;;;;4989418;28;20254;-80
2021/12/15 03:57:36;;;;;;;10.90;5.40;;;;;;;;;;4997846;28;20290;-81
2021/12/15 04:00:07;;;;;;;10.47;5.50;;;;;;;;;;5006394;28;20236;-80
2021/12/15 04:02:34;;;;;;;12.57;5.77;;;;;;;;;;4996703;28;20658;-81
2021/12/15 04:05:02;;;;;;;9.23;4.77;;;;;;;;;;5003790;28;20239;-79
2021/12/15 04:07:30;;;;;;;11.00;4.93;;;;;;;;;;4988095;28;20234;-81
2021/12/15 04:09:57;;;;;;;6.10;3.63;;;;;;;;;;5005085;28;20303;-80
2021/12/15 04:12:24;;;;;;;12.13;3.33;;;;;;;;;;5003611;28;20208;-82
2021/12/15 04:15:06;;;;;;;5.93;2.87;;;;;;;;;;4997047;28;24322;-82
2021/12/15 04:17:34;;;;;;;5.40;3.30;;;;;;;;;;4995077;28;20231;-82
2021/12/15 04:20:05;;;;;;;6.07;3.40;;;;;;;;;;4990361;28;21126;-81
2021/12/15 04:22:32;;;;;;;8.80;4.63;;;;;;;;;;4988629;28;20303;-84
2021/12/15 04:25:00;;;;;;;6.90;4.43;;;;;;;;;;4976753;28;20210;-79
2021/12/15 04:27:27;;;;;;;9.60;4.20;;;;;;;;;;4977831;28;20346;-82
2021/12/15 04:29:54;;;;;;;8.70;4.63;;;;;;;;;;5006949;28;20694;-77
2021/12/15 04:32:26;;;;;;;5.67;3.70;;;;;;;;;;5001562;28;20216;-80
2021/12/15 04:34:53;;;;;;;8.27;4.37;;;;;;;;;;5007295;28;20315;-82
2021/12/15 04:37:21;;;;;;;9.13;4.70;;;;;;;;;;4983754;28;20290;-78
2021/12/15 04:39:48;;;;;;;18.57;4.13;;;;;;;;;;5001749;28;20207;-79
2021/12/15 04:42:18;;;;;;;5.60;3.97;;;;;;;;;;5002845;28;20303;-78
2021/12/15 04:44:46;;;;;;;7.67;4.23;;;;;;;;;;4995680;28;20605;-80
2021/12/15 04:47:14;;;;;;;6.83;4.30;;;;;;;;;;5005574;28;20272;-80
2021/12/15 04:49:47;;;;;;;7.93;4.20;;;;;;;;;;4993979;28;20255;-81
2021/12/15 04:52:16;;;;;;;7.47;4.33;;;;;;;;;;5009133;28;20284;-82
2021/12/15 04:54:43;;;;;;;7.03;3.80;;;;;;;;;;5002473;28;20295;-80
2021/12/15 04:57:12;;;;;;;5.63;3.60;;;;;;;;;;4995083;28;20223;-81
2021/12/15 04:59:40;;;;;;;14.87;4.10;;;;;;;;;;4991156;28;20575;-80
2021/12/15 05:02:07;;;;;;;10.30;3.90;;;;;;;;;;4992398;28;20231;-79
2021/12/15 05:04:35;;;;;;;9.10;4.20;;;;;;;;;;4993384;28;20303;-81
2021/12/15 05:07:03;;;;;;;7.03;4.10;;;;;;;;;;4992779;28;20303;-79
2021/12/15 05:09:31;;;;;;;6.37;3.80;;;;;;;;;;4989393;28;20223;-81
2021/12/15 05:11:58;;;;;;;10.23;4.20;;;;;;;;;;5000621;28;20480;-82
2021/12/15 05:14:25;;;;;;;5.63;3.90;;;;;;;;;;4997817;28;20211;-80
2021/12/15 05:16:53;;;;;;;8.90;4.60;;;;;;;;;;5002111;28;20326;-80
2021/12/15 05:19:21;;;;;;;9.37;4.40;;;;;;;;;;5000319;28;20326;-80
2021/12/15 05:21:51;;;;;;;6.70;3.87;;;;;;;;;;4997361;28;20324;-79
2021/12/15 05:26:56;;;;;;;7.57;4.90;;;;;;;;;;5000338;28;20306;-80
2021/12/15 05:29:23;;;;;;;7.50;4.23;;;;;;;;;;4979361;28;20448;-80
2021/12/15 05:31:50;;;;;;;11.90;7.53;;;;;;;;;;5008143;28;20207;-80
2021/12/15 05:34:19;;;;;;;8.30;6.47;;;;;;;;;;4991515;28;20627;-79
2021/12/15 05:36:48;;;;;;;6.23;4.20;;;;;;;;;;4999753;28;20318;-82
2021/12/15 05:39:15;;;;;;;6.60;3.53;;;;;;;;;;4997973;28;20238;-81
2021/12/15 05:41:42;;;;;;;7.13;4.47;;;;;;;;;;5002109;28;20239;-80
2021/12/15 05:44:09;;;;;;;7.93;4.27;;;;;;;;;;5001586;28;20231;-80
2021/12/15 05:46:36;;;;;;;6.80;4.43;;;;;;;;;;5006534;28;20207;-78
2021/12/15 05:49:05;;;;;;;6.40;4.90;;;;;;;;;;4979252;28;20242;-79
2021/12/15 05:51:33;;;;;;;9.50;4.53;;;;;;;;;;5001813;28;20630;-78
2021/12/15 05:54:00;;;;;;;7.00;4.43;;;;;;;;;;5009627;28;20210;-78
2021/12/15 05:56:27;;;;;;;5.50;4.00;;;;;;;;;;4998385;28;20303;-78
2021/12/15 05:58:55;;;;;;;7.77;3.80;;;;;;;;;;4978883;28;20710;-80
2021/12/15 06:01:22;;;;;;;9.43;5.03;;;;;;;;;;5003148;28;20295;-80
2021/12/15 06:03:49;;;;;;;7.73;5.47;;;;;;;;;;5000075;28;20933;-79
2021/12/15 06:06:17;;;;;;;9.50;5.67;;;;;;;;;;4986447;28;20200;-81
2021/12/15 06:08:45;;;;;;;7.40;4.67;;;;;;;;;;5003871;28;20310;-80
2021/12/15 06:11:13;;;;;;;8.33;5.13;;;;;;;;;;5006255;28;20238;-80
2021/12/15 06:13:41;;;;;;;8.17;5.13;;;;;;;;;;5006392;28;20302;-79
2021/12/15 06:16:09;;;;;;;9.73;5.40;;;;;;;;;;5000548;28;20496;-79
2021/12/15 06:18:37;;;;;;;7.63;5.13;;;;;;;;;;4979399;28;20254;-77
2021/12/15 06:21:04;;;;;;;10.67;6.03;;;;;;;;;;4995684;28;20287;-80
2021/12/15 06:23:31;;;;;;;9.53;6.33;;;;;;;;;;5007106;28;20234;-80
2021/12/15 06:26:03;;;;;;;12.63;7.47;;;;;;;;;;5009430;28;20286;-79
2021/12/15 06:28:33;;;;;;;11.93;7.83;;;;;;;;;;4999229;28;20230;-78
2021/12/15 06:31:01;;;;;;;12.93;8.43;;;;;;;;;;4994301;28;20207;-80
2021/12/15 06:33:29;;;;;;;8.80;6.30;;;;;;;;;;5010818;28;20211;-79
2021/12/15 06:35:59;;;;;;;7.90;4.50;;;;;;;;;;5004217;28;20242;-79
2021/12/15 06:38:30;;;;;;;5.83;3.87;;;;;;;;;;5007253;28;20231;-80
2021/12/15 06:40:58;;;;;;;11.90;3.30;;;;;;;;;;5005211;28;20676;-80
2021/12/15 06:43:26;;;;;;;6.07;4.00;;;;;;;;;;5007300;28;20227;-80
2021/12/15 06:59:34;;;;;;;9.03;4.80;;;;;;;;;;4998634;28;20771;-79
2021/12/15 07:02:02;;;;;;;9.40;5.10;;;;;;;;;;5004147;28;20231;-78
2021/12/15 07:04:30;;;;;;;15.93;4.90;;;;;;;;;;4999478;28;20281;-80
2021/12/15 07:06:57;;;;;;;7.40;4.60;;;;;;;;;;5003952;28;20294;-79
2021/12/15 07:09:24;;;;;;;32.33;4.53;;;;;;;;;;5005342;28;20310;-79
2021/12/15 07:11:52;;;;;;;7.77;3.30;;;;;;;;;;5007068;28;20748;-78
2021/12/15 07:14:22;;;;;;;7.57;3.67;;;;;;;;;;5003479;28;20758;-76
2021/12/15 07:16:52;;;;;;;5.30;3.60;;;;;;;;;;4996777;28;20226;-79
2021/12/15 07:19:31;;;;;;;5.50;3.73;;;;;;;;;;4984738;28;20228;-78
2021/12/15 07:22:09;;;;;;;5.53;3.83;;;;;;;;;;4990750;28;20298;-79
2021/12/15 07:24:38;;;;;;;21.10;3.63;;;;;;;;;;5002698;28;20227;-79
2021/12/15 07:27:06;;;;;;;24.37;4.80;;;;;;;;;;5006512;28;20208;-78
2021/12/15 07:29:34;;;;;;;17.00;4.50;;;;;;;;;;5003763;28;20227;-81
2021/12/15 07:32:02;;;;;;;15.37;5.70;;;;;;;;;;5010251;28;20208;-78
2021/12/15 07:34:29;;;;;;;15.30;4.60;;;;;;;;;;4998539;28;20211;-77
2021/12/15 07:36:57;;;;;;;12.60;3.70;;;;;;;;;;5000548;28;20219;-79
2021/12/15 07:39:24;;;;;;;21.20;4.23;;;;;;;;;;5000470;28;20244;-78
2021/12/15 07:41:53;;;;;;;5.33;3.77;;;;;;;;;;5004905;28;20227;-79
2021/12/15 07:44:22;;;;;;;8.33;3.83;;;;;;;;;;4998099;28;20200;-76
2021/12/15 07:46:51;;;;;;;14.73;4.97;;;;;;;;;;4985856;28;20344;-78
2021/12/15 07:49:22;;;;;;;9.20;4.60;;;;;;;;;;4988757;28;20231;-77
2021/12/15 07:51:52;;;;;;;5.97;3.20;;;;;;;;;;4989352;28;20255;-76
2021/12/15 07:54:20;;;;;;;5.47;3.60;;;;;;;;;;4990110;28;20315;-81
2021/12/15 07:56:48;;;;;;;5.73;4.10;;;;;;;;;;4990972;28;20227;-79
2021/12/15 07:59:15;;;;;;;9.53;4.23;;;;;;;;;;4999270;28;20239;-79
2021/12/15 08:01:42;;;;;;;8.70;4.87;;;;;;;;;;4984272;28;20777;-79
2021/12/15 08:04:10;;;;;;;18.23;4.37;;;;;;;;;;4996816;28;20616;-79
2021/12/15 08:06:38;;;;;;;6.20;4.63;;;;;;;;;;4989233;28;20219;-80
2021/12/15 08:09:06;;;;;;;45.00;5.10;;;;;;;;;;4974846;28;20369;-80
2021/12/15 08:11:35;;;;;;;7.53;4.60;;;;;;;;;;4990893;28;20212;-80
2021/12/15 08:14:02;;;;;;;15.77;4.30;;;;;;;;;;4991779;28;20647;-80
2021/12/15 08:16:29;;;;;;;15.13;5.03;;;;;;;;;;5001898;28;20283;-80
2021/12/15 08:18:57;;;;;;;16.33;6.10;;;;;;;;;;4996209;28;20317;-80
2021/12/15 08:21:28;;;;;;;22.40;6.53;;;;;;;;;;4985074;28;20692;-79
2021/12/15 08:23:55;;;;;;;17.83;7.77;;;;;;;;;;4990768;28;20263;-78
2021/12/15 08:26:23;;;;;;;28.10;7.67;;;;;;;;;;4998483;28;20224;-80
2021/12/15 08:28:52;;;;;;;15.07;7.33;;;;;;;;;;5000855;28;20318;-78
2021/12/15 08:31:19;;;;;;;21.93;7.10;;;;;;;;;;5007513;28;20212;-78
2021/12/15 08:33:47;;;;;;;13.53;7.37;;;;;;;;;;4994436;28;20694;-78
2021/12/15 08:36:15;;;;;;;43.10;8.27;;;;;;;;;;5003590;28;20281;-79
2021/12/15 08:38:44;;;;;;;28.07;9.23;;;;;;;;;;4983686;28;20313;-78
2021/12/15 08:41:12;;;;;;;41.83;10.00;;;;;;;;;;5000018;28;20317;-80
2021/12/15 08:43:40;;;;;;;30.13;8.87;;;;;;;;;;5002033;28;20270;-79
2021/12/15 08:46:08;;;;;;;25.03;9.87;;;;;;;;;;4998897;28;20234;-81
2021/12/15 08:48:37;;;;;;;20.00;9.93;;;;;;;;;;5000752;28;20243;-82
2021/12/15 08:51:06;;;;;;;31.07;8.80;;;;;;;;;;4984056;28;20262;-76
2021/12/15 08:53:34;;;;;;;23.03;9.90;;;;;;;;;;4997186;28;20232;-78
2021/12/15 08:56:01;;;;;;;22.27;9.53;;;;;;;;;;4986983;28;20200;-79
2021/12/15 08:58:28;;;;;;;25.17;9.80;;;;;;;;;;5006692;28;20319;-79
2021/12/15 09:00:56;;;;;;;69.07;11.20;;;;;;;;;;5003145;28;20298;-78
2021/12/15 09:03:25;;;;;;;48.70;10.23;;;;;;;;;;4989142;28;20660;-79
2021/12/15 09:05:54;;;;;;;42.13;10.63;;;;;;;;;;5000899;28;20863;-79
2021/12/15 09:08:22;;;;;;;35.03;10.90;;;;;;;;;;4998434;28;20281;-78
2021/12/15 09:10:49;;;;;;;24.33;10.17;;;;;;;;;;4988432;28;20659;-80
2021/12/15 09:13:17;;;;;;;32.13;11.57;;;;;;;;;;4998726;28;20211;-81
2021/12/15 09:15:44;;;;;;;45.27;12.37;;;;;;;;;;4991349;28;20220;-78
2021/12/15 09:18:12;;;;;;;38.40;14.10;;;;;;;;;;4990069;28;20235;-77
2021/12/15 09:20:42;;;;;;;41.40;15.67;;;;;;;;;;4992524;28;20203;-79
2021/12/15 09:23:11;;;;;;;31.60;13.50;;;;;;;;;;5004731;28;20266;-80
2021/12/15 09:25:38;;;;;;;44.87;13.33;;;;;;;;;;5008593;28;20234;-78
2021/12/15 09:28:06;;;;;;;63.70;14.13;;;;;;;;;;5004374;28;20232;-78
2021/12/15 09:30:43;;;;;;;38.10;14.03;;;;;;;;;;4994935;28;20207;-79
2021/12/15 09:33:12;;;;;;;37.43;13.50;;;;;;;;;;5000655;28;20460;-81
2021/12/15 09:35:39;;;;;;;44.00;14.57;;;;;;;;;;5007695;28;20280;-78
2021/12/15 09:38:14;;;;;;;68.23;15.43;;;;;;;;;;4999819;28;20777;-78
2021/12/15 09:40:41;;;;;;;87.77;15.33;;;;;;;;;;5009212;28;20305;-78
2021/12/15 09:43:11;;;;;;;34.47;14.70;;;;;;;;;;5001403;28;20203;-82
2021/12/15 09:45:48;;;;;;;56.30;14.77;;;;;;;;;;5003110;28;20223;-80
2021/12/15 10:18:11;;;;;;;20.80;12.40;;;;;;;;;;4999268;28;20289;-78
2021/12/15 10:20:39;;;;;;;39.20;14.23;;;;;;;;;;5011810;28;20290;-80
2021/12/15 10:23:08;;;;;;;55.60;14.67;;;;;;;;;;5006466;28;20297;-78
2021/12/15 10:25:38;;;;;;;49.67;15.87;;;;;;;;;;5005695;28;20294;-77
2021/12/15 10:28:07;;;;;;;24.90;13.60;;;;;;;;;;5001073;28;20266;-79
2021/12/15 10:30:38;;;;;;;34.87;14.63;;;;;;;;;;4994983;28;20204;-78
2021/12/15 10:33:09;;;;;;;22.17;12.43;;;;;;;;;;5008991;28;20207;-76
2021/12/15 10:36:02;;;;;;;34.97;13.87;;;;;;;;;;5000715;28;20291;-79
2021/12/15 10:38:39;;;;;;;60.90;14.33;;;;;;;;;;4967804;28;20258;-78
2021/12/15 10:41:09;;;;;;;51.93;13.40;;;;;;;;;;4998829;28;20594;-79
2021/12/15 10:43:38;;;;;;;71.33;15.27;;;;;;;;;;4994302;28;20298;-78
2021/12/15 10:46:14;;;;;;;18.57;12.07;;;;;;;;;;5003923;28;20683;-78
2021/12/15 10:48:47;;;;;;;26.97;12.10;;;;;;;;;;4998332;28;20230;-80
2021/12/15 10:51:18;;;;;;;28.57;12.33;;;;;;;;;;5003387;28;20211;-79
2021/12/15 10:53:45;;;;;;;57.83;12.50;;;;;;;;;;5000540;28;20254;-79
2021/12/15 10:56:14;;;;;;;21.90;11.43;;;;;;;;;;4994044;28;20207;-76
2021/12/15 10:58:43;;;;;;;51.20;14.30;;;;;;;;;;5000444;28;20239;-80
2021/12/15 11:01:29;;;;;;;77.83;14.10;;;;;;;;;;5004909;28;20250;-77
2021/12/15 11:03:58;;;;;;;106.93;13.97;;;;;;;;;;5000571;28;20204;-80
2021/12/15 11:06:32;;;;;;;46.57;12.67;;;;;;;;;;5005781;28;20582;-79
2021/12/15 11:09:11;;;;;;;29.20;12.00;;;;;;;;;;5004797;28;20322;-78
2021/12/15 11:11:55;;;;;;;23.20;12.27;;;;;;;;;;5006763;28;20239;-80
2021/12/15 11:14:29;;;;;;;30.13;11.70;;;;;;;;;;4992388;28;20203;-75
2021/12/15 11:17:14;;;;;;;56.60;12.50;;;;;;;;;;5003856;28;20294;-77
2021/12/15 11:19:52;;;;;;;27.37;12.03;;;;;;;;;;5010016;28;20231;-81
2021/12/15 11:22:35;;;;;;;28.90;12.20;;;;;;;;;;5006137;28;20242;-80
2021/12/15 11:25:03;;;;;;;49.67;12.10;;;;;;;;;;4986407;28;20239;-79
2021/12/15 11:27:30;;;;;;;23.33;11.83;;;;;;;;;;5002122;28;20199;-79
2021/12/15 11:29:58;;;;;;;16.20;11.97;;;;;;;;;;4985690;28;20222;-80
2021/12/15 11:32:42;;;;;;;111.50;14.17;;;;;;;;;;4999804;28;20288;-78
2021/12/15 11:35:17;;;;;;;25.90;11.70;;;;;;;;;;4999603;28;20215;-80
2021/12/15 11:37:47;;;;;;;60.27;11.93;;;;;;;;;;5000443;28;20675;-80
2021/12/15 11:40:15;;;;;;;136.37;13.50;;;;;;;;;;4993237;28;20239;-79
2021/12/15 11:42:44;;;;;;;58.60;12.57;;;;;;;;;;4998535;28;20751;-80
2021/12/15 11:45:12;;;;;;;105.50;12.30;;;;;;;;;;5009731;28;20626;-79
2021/12/15 11:47:40;;;;;;;56.27;11.33;;;;;;;;;;5011636;28;20295;-77
2021/12/15 11:50:08;;;;;;;99.07;12.30;;;;;;;;;;4988693;28;20291;-78
2021/12/15 11:52:45;;;;;;;91.40;11.97;;;;;;;;;;4995821;28;23353;-80
2021/12/15 11:55:29;;;;;;;55.50;10.57;;;;;;;;;;4996194;28;20211;-79
2021/12/15 11:57:59;;;;;;;36.40;10.90;;;;;;;;;;5004241;28;20231;-80
2021/12/15 12:00:28;;;;;;;109.87;15.10;;;;;;;;;;5002609;28;20648;-78
2021/12/15 12:02:57;;;;;;;53.60;11.43;;;;;;;;;;4984136;28;20203;-79
2021/12/15 12:05:29;;;;;;;37.87;10.30;;;;;;;;;;5002689;28;20220;-79
2021/12/15 12:07:59;;;;;;;19.30;9.70;;;;;;;;;;4998329;28;20314;-80
2021/12/15 12:10:43;;;;;;;83.23;10.53;;;;;;;;;;5003437;28;20266;-79
2021/12/15 12:13:15;;;;;;;107.30;11.83;;;;;;;;;;5003593;28;20231;-79
2021/12/15 12:15:43;;;;;;;33.30;9.13;;;;;;;;;;5008618;28;20203;-78
2021/12/15 12:18:15;;;;;;;39.50;10.40;;;;;;;;;;5006545;28;20314;-81
2021/12/15 12:20:44;;;;;;;26.60;9.50;;;;;;;;;;5009509;28;20220;-80
2021/12/15 12:23:14;;;;;;;60.43;10.10;;;;;;;;;;5005471;28;20659;-77
2021/12/15 12:25:45;;;;;;;12.70;9.17;;;;;;;;;;4999612;28;20302;-79
2021/12/15 12:28:14;;;;;;;14.60;9.23;;;;;;;;;;5006041;28;20318;-80
2021/12/15 12:30:43;;;;;;;31.20;9.67;;;;;;;;;;5006740;28;20224;-79
2021/12/15 12:33:12;;;;;;;48.93;8.40;;;;;;;;;;5008652;28;20586;-80
2021/12/15 12:35:44;;;;;;;49.57;8.00;;;;;;;;;;5005152;28;20231;-79
2021/12/15 12:38:13;;;;;;;15.47;9.00;;;;;;;;;;5000171;28;20281;-80
2021/12/15 12:41:01;;;;;;;78.53;10.60;;;;;;;;;;5003125;28;20293;-78
2021/12/15 12:43:30;;;;;;;74.23;9.17;;;;;;;;;;4989683;28;20286;-78
2021/12/15 12:46:15;;;;;;;48.13;9.40;;;;;;;;;;4992750;28;20207;-79
2021/12/15 13:00:28;;;;;;;9.70;7.83;;;;;;;;;;4996927;28;20219;-78
2021/12/15 13:03:04;;;;;;;85.13;12.37;;;;;;;;;;5003031;28;20250;-79
2021/12/15 13:05:38;;;;;;;42.73;9.50;;;;;;;;;;5003631;28;20199;-79
2021/12/15 13:08:07;;;;;;;59.20;9.40;;;;;;;;;;4988344;28;20310;-79
2021/12/15 13:10:50;;;;;;;24.57;7.20;;;;;;;;;;5000793;28;20642;-79
2021/12/15 13:13:28;;;;;;;73.17;8.50;;;;;;;;;;4989735;28;20253;-79
2021/12/15 13:15:56;;;;;;;14.57;7.70;;;;;;;;;;5004682;28;20932;-79
2021/12/15 13:18:23;;;;;;;12.27;6.80;;;;;;;;;;5005235;28;20493;-79
2021/12/15 13:21:00;;;;;;;14.60;7.23;;;;;;;;;;5003111;28;20196;-79
2021/12/15 13:23:42;;;;;;;8.20;6.50;;;;;;;;;;5007929;28;20678;-83
2021/12/15 13:29:15;;;;;;;33.17;7.50;;;;;;;;;;5007116;28;20255;-77
2021/12/15 13:31:52;;;;;;;53.07;9.10;;;;;;;;;;4986314;28;20295;-79
2021/12/15 13:34:34;;;;;;;11.10;6.73;;;;;;;;;;5009264;28;20199;-79
2021/12/15 13:37:01;;;;;;;8.33;6.87;;;;;;;;;;4989820;28;20298;-80
2021/12/15 13:39:42;;;;;;;51.63;8.37;;;;;;;;;;5002728;28;20683;-78
2021/12/15 13:42:14;;;;;;;23.83;8.53;;;;;;;;;;5004681;28;20235;-77
2021/12/15 13:44:41;;;;;;;49.40;9.03;;;;;;;;;;4987876;28;20345;-79
2021/12/15 13:47:13;;;;;;;11.63;7.50;;;;;;;;;;4975824;28;20291;-78
2021/12/15 13:49:58;;;;;;;39.80;8.23;;;;;;;;;;4994283;28;20390;-78
2021/12/15 13:52:45;;;;;;;78.23;8.40;;;;;;;;;;4988386;28;20211;-82
2021/12/15 13:55:31;;;;;;;34.73;7.70;;;;;;;;;;4990998;28;20222;-81
2021/12/15 13:58:10;;;;;;;34.37;8.30;;;;;;;;;;4993977;28;20251;-80
2021/12/15 14:00:46;;;;;;;22.10;7.23;;;;;;;;;;5005989;28;20266;-79
2021/12/15 14:03:17;;;;;;;26.83;7.67;;;;;;;;;;4984420;28;20208;-80
2021/12/15 14:05:51;;;;;;;66.73;8.03;;;;;;;;;;5000714;28;20306;-77
2021/12/15 14:08:30;;;;;;;22.07;7.20;;;;;;;;;;4993245;28;20359;-78
2021/12/15 14:11:07;;;;;;;76.53;12.97;;;;;;;;;;5003843;28;20299;-80
2021/12/15 14:13:39;;;;;;;33.97;8.23;;;;;;;;;;4983714;28;20294;-76
2021/12/15 14:16:07;;;;;;;25.57;8.03;;;;;;;;;;5003321;28;20286;-80
2021/12/15 14:18:34;;;;;;;9.53;7.60;;;;;;;;;;4999131;28;20710;-78
2021/12/15 14:21:16;;;;;;;14.87;8.73;;;;;;;;;;5005418;28;20294;-78
2021/12/15 14:23:48;;;;;;;18.60;11.27;;;;;;;;;;5005233;28;20218;-79
2021/12/15 14:26:33;;;;;;;17.03;11.30;;;;;;;;;;5007189;28;20208;-78
2021/12/15 14:29:03;;;;;;;32.27;10.40;;;;;;;;;;4988845;28;20234;-80
2021/12/15 14:31:32;;;;;;;44.73;10.57;;;;;;;;;;5005977;28;20235;-79
2021/12/15 14:34:01;;;;;;;9.80;7.50;;;;;;;;;;5002913;28;20200;-79
2021/12/15 14:36:30;;;;;;;36.87;8.07;;;;;;;;;;5004141;28;20223;-79
2021/12/15 14:39:00;;;;;;;14.90;8.07;;;;;;;;;;4997412;28;20239;-79
2021/12/15 14:41:46;;;;;;;26.60;8.23;;;;;;;;;;4989912;28;20212;-78
2021/12/15 14:44:16;;;;;;;50.73;9.03;;;;;;;;;;5012538;28;20283;-79
2021/12/15 14:46:55;;;;;;;23.20;8.93;;;;;;;;;;5002931;28;20236;-78
2021/12/15 14:49:28;;;;;;;33.27;9.00;;;;;;;;;;5006714;28;20270;-78
2021/12/15 14:51:57;;;;;;;68.40;10.90;;;;;;;;;;4993578;28;20238;-80
2021/12/15 14:54:25;;;;;;;17.00;10.60;;;;;;;;;;5005758;28;20246;-78
2021/12/15 14:56:52;;;;;;;76.43;13.00;;;;;;;;;;5001217;28;20876;-80
2021/12/15 14:59:24;;;;;;;25.03;12.40;;;;;;;;;;4991523;28;20683;-79
2021/12/15 15:01:54;;;;;;;67.47;12.63;;;;;;;;;;4981525;28;20302;-80
2021/12/15 15:04:25;;;;;;;44.93;12.90;;;;;;;;;;4997535;28;20239;-77
2021/12/15 15:06:58;;;;;;;35.50;14.07;;;;;;;;;;4993427;28;20245;-78
2021/12/15 15:09:31;;;;;;;25.13;13.00;;;;;;;;;;5007475;28;20311;-79
2021/12/15 15:11:58;;;;;;;80.20;21.20;;;;;;;;;;5000683;28;20290;-79
2021/12/15 15:14:27;;;;;;;21.60;14.03;;;;;;;;;;4982603;28;20866;-81
2021/12/15 15:16:54;;;;;;;23.93;13.70;;;;;;;;;;5006116;28;20235;-77
2021/12/15 15:19:22;;;;;;;47.73;13.10;;;;;;;;;;4987629;28;20253;-81
2021/12/15 15:21:53;;;;;;;26.23;12.67;;;;;;;;;;5007383;28;20200;-79
2021/12/15 15:24:38;;;;;;;25.67;12.50;;;;;;;;;;5009260;28;20196;-79
2021/12/15 15:27:07;;;;;;;32.67;11.97;;;;;;;;;;5005351;28;20294;-81
2021/12/15 15:29:41;;;;;;;23.00;11.43;;;;;;;;;;5001878;28;20314;-81
2021/12/15 15:32:15;;;;;;;20.53;11.17;;;;;;;;;;4998983;28;20254;-79
2021/12/15 15:34:44;;;;;;;63.93;12.23;;;;;;;;;;5009470;28;20668;-79
2021/12/15 15:37:23;;;;;;;51.60;12.87;;;;;;;;;;4991841;28;20210;-79
2021/12/15 15:40:02;;;;;;;29.67;11.93;;;;;;;;;;5009294;28;20318;-77
2021/12/15 15:42:30;;;;;;;32.83;11.50;;;;;;;;;;5002768;28;20224;-79
2021/12/15 15:44:57;;;;;;;60.50;11.10;;;;;;;;;;5009739;28;20211;-80
2021/12/15 15:47:24;;;;;;;66.67;14.33;;;;;;;;;;4999599;28;20213;-79
2021/12/15 15:49:57;;;;;;;37.10;11.50;;;;;;;;;;4997810;28;20321;-77
2021/12/15 15:52:25;;;;;;;30.10;11.90;;;;;;;;;;5000869;28;20226;-77
2021/12/15 15:54:52;;;;;;;22.87;12.57;;;;;;;;;;5006056;28;20217;-78
2021/12/15 15:57:24;;;;;;;35.27;11.43;;;;;;;;;;4984235;28;20286;-76
2021/12/15 15:59:52;;;;;;;18.53;10.77;;;;;;;;;;5004971;28;20318;-75
2021/12/15 16:02:19;;;;;;;17.03;11.27;;;;;;;;;;5002056;28;20301;-78
2021/12/15 16:04:47;;;;;;;35.73;10.57;;;;;;;;;;5008139;28;20734;-79
2021/12/15 16:07:19;;;;;;;25.77;14.90;;;;;;;;;;5006744;28;20234;-81
2021/12/15 16:09:48;;;;;;;16.37;9.97;;;;;;;;;;5009357;28;20320;-78
2021/12/15 16:12:16;;;;;;;25.10;10.87;;;;;;;;;;4998482;28;20727;-78
2021/12/15 16:14:45;;;;;;;30.93;11.93;;;;;;;;;;4998345;28;20231;-78
2021/12/15 16:17:20;;;;;;;25.20;16.27;;;;;;;;;;4999274;28;20640;-77